Tiempo atmosférico en la estación meteorológica de Barbadillo, Salamanca (817 m.)



Fecha
DESCASC
Temp. máxima en grados centígrados (hora)
DESCASC
Temp. mínima en grados centígrados (hora)
DESCASC
Temp. media en grados centígrados
DESCASC
Racha de viento máxima en m/sg (hora)
DESCASC
Velocidad máxima media en intervalos de 10 minutos(hora)
DESCASC
Precipitaciones diarias en mm
DESCASC
Precipitaciones de 00:00 a 06:00 en mm
DESCASC
Precipitaciones de 06:00 a 12:00 en mm
DESCASC
Precipitaciones de 12:00 a 18:00 en mm
DESCASC
Precipitaciones de 18:00 a 24:00 en mm
DESCASC
15-08-2019 32.2 (17:50) 13.5 (07:40) 22.9 7.22 (12:30) 4.17 (12:10) 0 0 0 0 0
14-08-2019 30.9 (17:50) 8.4 (00:00) 19.6 9.17 (15:40) 3.89 (18:00) 0 0 0 0 0
13-08-2019 26.4 (18:30) 10.5 (00:00) 18.4 7.5 (05:00) 5 (04:00) 0 0 0 0 0
12-08-2019 23.2 (18:10) 5.8 (00:00) 14.5 9.17 (15:00) 5.28 (12:50) 0 0 0 0 0
11-08-2019 22.5 (17:40) 12.4 (00:00) 17.4 11.39 (16:10) 6.11 (17:00) 1 1 0 0 0
10-08-2019 26.6 (18:00) 11.3 (00:00) 19 7.78 (18:30) 4.44 (20:40) 0 0 0 0 0
09-08-2019 22.8 (00:00) 15.6 (00:00) 19.2 10.56 (14:40) 6.11 (17:00) 5.4 0 2.6 2.8 0
08-08-2019 30.1 (17:10) 18.3 (00:00) 24.2 13.06 (17:50) 8.06 (18:30) 0 0 0 0 0
07-08-2019 25.7 (19:20) 17.5 (00:00) 21.6 8.89 (16:50) 5.28 (16:50) 0 0 0 0 0
06-08-2019 32.1 (16:50) 14.9 (00:00) 23.5 12.5 (16:20) 5 (15:10) 0 0 0 0 0
05-08-2019 32.5 (17:40) 13.1 (00:00) 22.8 9.17 (20:10) 5 (18:30) 0 0 0 0 0
04-08-2019 32.7 (17:20) 14.7 (00:00) 23.7 9.72 (15:50) 5.28 (15:10) 0 0 0 0 0
03-08-2019 33.2 (17:30) 13 (00:00) 23.1 8.89 (15:10) 5 (13:10) 0 0 0 0 0
02-08-2019 32.3 (18:30) 11.1 (00:00) 21.7 6.39 (16:10) 3.61 (09:40) 0 0 0 0 0
01-08-2019 31 (17:10) 11 (00:00) 21 9.44 (18:50) 5 (17:10) 0 0 0 0 0
31-07-2019 28.5 (16:40) 11.2 (00:00) 19.8 7.22 (13:30) 4.17 (02:20) 0 0 0 0 0
30-07-2019 25 (18:10) 6.9 (00:00) 16 8.89 (16:50) 4.72 (10:10) 0 0 0 0 0
29-07-2019 25.5 (16:50) 12.6 (00:00) 19.1 11.11 (11:50) 6.39 (14:40) 0 0 0 0 0
28-07-2019 28.6 (18:10) 11.1 (00:00) 19.9 10 (01:50) 5.56 (02:10) 0 0 0 0 0
27-07-2019 24.8 (18:30) 12.9 (00:00) 18.8 11.39 (13:30) 6.94 (13:10) 0 0 0 0 0
26-07-2019 25.1 (19:00) 14.3 (00:00) 19.7 10.83 (18:30) 6.11 (17:10) 0 0 0 0 0
25-07-2019 31.7 (17:20) 15.2 (00:00) 23.5 13.61 (13:20) 9.72 (13:20) 0 0 0 0 0
24-07-2019 33.9 (17:30) 17.3 (00:00) 25.6 11.11 (15:00) 6.39 (15:20) 0 0 0 0 0
23-07-2019 33.6 (17:50) 19.5 (00:00) 26.5 13.33 (01:20) 9.17 (01:20) 0.8 0.2 0.6 0 0
22-07-2019 36.1 (15:30) 15.6 (00:00) 25.8 19.72 (16:50) 13.33 (16:50) 10.4 0 0 9.8 0.6
21-07-2019 35.8 (17:30) 12.5 (00:00) 24.1 8.61 (18:40) 4.17 (16:10) 0 0 0 0 0
20-07-2019 33.2 (18:00) 16 (00:00) 24.6 10 (15:50) 5 (16:50) 0 0 0 0 0
19-07-2019 35 (17:00) 12.5 (00:00) 23.8 9.44 (16:10) 5.28 (18:40) 0 0 0 0 0

Gráficas

Temp. máximas Temp. mínimas Temp. medias Precipitaciones Rachas de viento máximas Velocidades máximas media en intervalos de 10 minutos

Datos horarios

Fecha y hora oficial Temperatura (ºC) Velocidad del viento (km/h) Dirección del viento Racha (km/h) Dirección de racha Precipitación (mm) Presión (hPa) Tendencia (hPa) Humedad (%)
2019-08-17 23:00:00 22.2 6 Sur 9 Sur 0 -- -- 37
2019-08-17 22:00:00 26.6 3 Sudoeste 12 Noroeste 0 -- -- 30
2019-08-17 21:00:00 30.7 9 Noroeste 21 Noroeste 0 -- -- 25
2019-08-17 20:00:00 32.6 12 Noroeste 31 Oeste 0 -- -- 22
2019-08-17 19:00:00 33.5 14 Oeste 39 Noroeste 0 -- -- 20
2019-08-17 18:00:00 33.8 16 Oeste 32 Oeste 0 -- -- 21
2019-08-17 17:00:00 33.7 16 Oeste 50 Oeste 0 -- -- 23
2019-08-17 16:00:00 33.1 18 Oeste 35 Oeste 0 -- -- 25
2019-08-17 15:00:00 32 15 Sudoeste 30 Sudoeste 0 -- -- 26
2019-08-17 14:00:00 30.3 10 Sudoeste 21 Oeste 0 -- -- 28
2019-08-17 13:00:00 28 10 Noroeste 17 Noroeste 0 -- -- 33
2019-08-17 12:00:00 26.1 9 Oeste 17 Oeste 0 -- -- 44
2019-08-17 11:00:00 23.4 6 Oeste 14 Oeste 0 -- -- 50
2019-08-17 10:00:00 20.7 8 Oeste 12 Sudoeste 0 -- -- 59
2019-08-17 09:00:00 15.6 5 Sudeste 7 Sudeste 0 -- -- 68
2019-08-17 08:00:00 12.9 0 Calma 8 Sur 0 -- -- 72
2019-08-17 07:00:00 13.2 5 Sur 6 Sur 0 -- -- 70
2019-08-17 06:00:00 14.4 4 Sur 6 Sur 0 -- -- 65
2019-08-17 05:00:00 15.8 3 Sur 6 Sur 0 -- -- 61
2019-08-17 04:00:00 17 4 Sur 5 Sur 0 -- -- 58
2019-08-17 03:00:00 17.8 4 Sur 9 Sudoeste 0 -- -- 55
2019-08-17 02:00:00 18.4 5 Sur 7 Sur 0 -- -- 53
2019-08-17 01:00:00 19.4 4 Sur 5 Sudoeste 0 -- -- 48
2019-08-17 00:00:00 21.2 4 Sur 8 Oeste 0 -- -- 44
2019-08-16 23:00:00 22.6 6 Oeste 11 Noroeste 0 -- -- 38
2019-08-16 22:00:00 26.7 4 Noroeste 13 Noroeste 0 -- -- 30
2019-08-16 21:00:00 30.3 8 Noroeste 24 Oeste 0 -- -- 25
2019-08-16 20:00:00 31.9 12 Oeste 28 Oeste 0 -- -- 20
2019-08-16 19:00:00 32.5 15 Oeste 31 Oeste 0 -- -- 19
2019-08-16 18:00:00 32.9 17 Oeste 28 Noroeste 0 -- -- 23
2019-08-16 17:00:00 32.9 17 Oeste 33 Oeste 0 -- -- 26
2019-08-16 16:00:00 32.3 16 Sudoeste 33 Oeste 0 -- -- 26
2019-08-16 15:00:00 31.6 15 Oeste 27 Sudoeste 0 -- -- 30
2019-08-16 14:00:00 30.1 10 Oeste 27 Oeste 0 -- -- 36
2019-08-16 13:00:00 28.1 9 Noroeste 18 Oeste 0 -- -- 41
2019-08-16 12:00:00 25.4 8 Noroeste 15 Oeste 0 -- -- 47
2019-08-16 11:00:00 23 9 Oeste 14 Oeste 0 -- -- 52
2019-08-16 10:00:00 20.7 8 Noroeste 13 Noroeste 0 -- -- 60
2019-08-16 09:00:00 17.3 5 Sudoeste 10 Sudoeste 0 -- -- 73
2019-08-16 08:00:00 13.6 5 Sur 8 Sur 0 -- -- 79
2019-08-16 07:00:00 14.4 0 Calma 7 Sur 0 -- -- 74
2019-08-16 06:00:00 15 3 Sur 5 Sur 0 -- -- 73
2019-08-16 05:00:00 16.2 3 Sudoeste 8 Sudoeste 0 -- -- 68
2019-08-16 04:00:00 16.7 7 Sur 10 Sur 0 -- -- 66
2019-08-16 03:00:00 17.7 6 Este 13 Este 0 -- -- 63
2019-08-16 02:00:00 18.1 2 Sur 6 Sudoeste 0 -- -- 58
2019-08-16 01:00:00 19.3 6 Sur 9 Sur 0 -- -- 54
2019-08-16 00:00:00 21.2 4 Sur 7 Sudeste 0 -- -- 47
2019-08-15 23:00:00 24.5 2 Sur 12 Noroeste 0 -- -- 41
2019-08-15 22:00:00 27.4 8 Noroeste 14 Noroeste 0 -- -- 36
2019-08-15 21:00:00 30.2 6 Noroeste 18 Oeste 0 -- -- 28
2019-08-15 20:00:00 31.6 5 Norte 18 Noroeste 0 -- -- 26
2019-08-15 19:00:00 32 6 Oeste 18 Oeste 0 -- -- 26
2019-08-15 18:00:00 32.1 7 Oeste 25 Oeste 0 -- -- 26
2019-08-15 17:00:00 30.9 4 Norte 18 Sudoeste 0 -- -- 29
2019-08-15 16:00:00 30.1 9 Oeste 18 Noroeste 0 -- -- 30
2019-08-15 15:00:00 29.4 9 Este 22 Este 0 -- -- 32
2019-08-15 14:00:00 28 10 Nordeste 21 Norte 0 -- -- 34
2019-08-15 13:00:00 26.7 8 Nordeste 26 Este 0 -- -- 40
2019-08-15 12:00:00 24.9 11 Nordeste 22 Este 0 -- -- 44
2019-08-15 11:00:00 22.6 11 Este 19 Este 0 -- -- 55
2019-08-15 10:00:00 20.5 11 Este 15 Este 0 -- -- 64
2019-08-15 09:00:00 15.8 0 Calma 6 Sur 0 -- -- 82
2019-08-15 08:00:00 13.6 2 Sur 5 Sur 0 -- -- 82
2019-08-15 07:00:00 14.3 0 Calma 8 Sur 0 -- -- 81
2019-08-15 06:00:00 15.1 5 Sur 7 Sur 0 -- -- 80
2019-08-15 05:00:00 16.3 5 Sur 7 Sur 0 -- -- 76
2019-08-15 04:00:00 17.4 0 Calma 6 Sudoeste 0 -- -- 73
2019-08-15 03:00:00 18.3 6 Sudoeste 8 Sur 0 -- -- 70
2019-08-15 02:00:00 20 3 Oeste 9 Sur 0 -- -- 66
2019-08-15 01:00:00 21.6 4 Sudoeste 13 Noroeste 0 -- -- 59
2019-08-15 00:00:00 23.5 8 Noroeste 17 Oeste 0 -- -- 55
2019-08-14 23:00:00 24.8 7 Noroeste 15 Noroeste 0 -- -- 49
2019-08-14 22:00:00 26.4 6 Noroeste 13 Oeste 0 -- -- 44
2019-08-14 21:00:00 28.8 8 Noroeste 18 Noroeste 0 -- -- 35
2019-08-14 20:00:00 30.1 12 Noroeste 23 Oeste 0 -- -- 32
2019-08-14 19:00:00 30.3 9 Noroeste 22 Noroeste 0 -- -- 30
2019-08-14 18:00:00 30.6 14 Oeste 30 Oeste 0 -- -- 28
2019-08-14 17:00:00 30.3 9 Noroeste 28 Oeste 0 -- -- 28
2019-08-14 16:00:00 29.8 13 Noroeste 33 Oeste 0 -- -- 27
2019-08-14 15:00:00 29.2 12 Oeste 24 Oeste 0 -- -- 26
2019-08-14 14:00:00 27.8 10 Noroeste 19 Oeste 0 -- -- 27
2019-08-14 13:00:00 26.7 8 Sudoeste 18 Oeste 0 -- -- 28
2019-08-14 12:00:00 24.1 6 Noroeste 14 Oeste 0 -- -- 33
2019-08-14 11:00:00 21.7 4 Noroeste 12 Oeste 0 -- -- 39
2019-08-14 10:00:00 18.4 6 Oeste 10 Oeste 0 -- -- 43
2019-08-14 09:00:00 12.4 0 Calma 6 Sur 0 -- -- 62
2019-08-14 08:00:00 8.6 6 Sur 9 Sur 0 -- -- 70
2019-08-14 07:00:00 8.6 4 Sur 5 Sur 0 -- -- 69
2019-08-14 06:00:00 9.5 0 Calma 6 Sur 0 -- -- 66
2019-08-14 05:00:00 9.8 5 Sur 9 Sur 0 -- -- 63
2019-08-14 04:00:00 10.6 5 Sur 11 Sur 0 -- -- 61
2019-08-14 03:00:00 11.1 4 Sur 8 Sur 0 -- -- 59
2019-08-14 02:00:00 12 5 Sur 8 Noroeste 0 -- -- 57
2019-08-14 01:00:00 13.3 4 Sur 8 Sur 0 -- -- 53
2019-08-14 00:00:00 14.5 6 Sur 9 Sur 0 -- -- 48
2019-08-13 23:00:00 17.4 4 Sur 8 Sur 0 -- -- 42
2019-08-13 22:00:00 21.9 3 Norte 9 Norte 0 -- -- 34
2019-08-13 21:00:00 25.1 4 Nordeste 14 Norte 0 -- -- 27
2019-08-13 20:00:00 26.1 4 Norte 15 Norte 0 -- -- 25
2019-08-13 19:00:00 26.4 6 Sudeste 17 Norte 0 -- -- 23
2019-08-13 18:00:00 26.2 8 Norte 21 Norte 0 -- -- 24
2019-08-13 17:00:00 25.8 9 Noroeste 17 Oeste 0 -- -- 24
2019-08-13 16:00:00 25.2 5 Norte 18 Este 0 -- -- 27
2019-08-13 15:00:00 24.2 10 Nordeste 20 Este 0 -- -- 27
2019-08-13 14:00:00 23.1 11 Este 27 Nordeste 0 -- -- 30
2019-08-13 13:00:00 21.7 14 Este 27 Este 0 -- -- 38
2019-08-13 12:00:00 19.7 11 Nordeste 22 Nordeste 0 -- -- 44
2019-08-13 11:00:00 17.4 10 Nordeste 22 Nordeste 0 -- -- 54
2019-08-13 10:00:00 14.8 14 Nordeste 24 Este 0 -- -- 60
2019-08-13 09:00:00 12.8 12 Nordeste 20 Nordeste 0 -- -- 68
2019-08-13 08:00:00 10.7 9 Nordeste 19 Nordeste 0 -- -- 76
2019-08-13 07:00:00 10.8 6 Nordeste 16 Nordeste 0 -- -- 75
2019-08-13 06:00:00 11.5 10 Nordeste 23 Nordeste 0 -- -- 73
2019-08-13 05:00:00 12.5 18 Este 27 Nordeste 0 -- -- 68
2019-08-13 04:00:00 13.3 18 Este 25 Nordeste 0 -- -- 65
2019-08-13 03:00:00 13.4 12 Este 16 Este 0 -- -- 60
2019-08-13 02:00:00 14.2 8 Nordeste 18 Este 0 -- -- 51
2019-08-13 01:00:00 12.1 4 Sudeste 10 Este 0 -- -- 57
2019-08-13 00:00:00 14.3 5 Sur 6 Sur 0 -- -- 49
2019-08-12 23:00:00 17.7 3 Norte 6 Norte 0 -- -- 37
2019-08-12 22:00:00 19.9 3 Nordeste 13 Nordeste 0 -- -- 31
2019-08-12 21:00:00 20.7 6 Nordeste 17 Nordeste 0 -- -- 28
2019-08-12 20:00:00 21.6 9 Nordeste 23 Nordeste 0 -- -- 28
2019-08-12 19:00:00 22.6 12 Norte 24 Norte 0 -- -- 27
2019-08-12 18:00:00 23.1 11 Nordeste 27 Nordeste 0 -- -- 26
2019-08-12 17:00:00 22.6 14 Nordeste 27 Nordeste 0 -- -- 29
2019-08-12 16:00:00 21.4 12 Norte 28 Norte 0 -- -- 31
2019-08-12 15:00:00 20.7 13 Nordeste 33 Nordeste 0 -- -- 37
2019-08-12 14:00:00 19.6 14 Nordeste 31 Nordeste 0 -- -- 41
2019-08-12 13:00:00 18.4 17 Nordeste 31 Nordeste 0 -- -- 45
2019-08-12 12:00:00 17.2 14 Nordeste 28 Este 0 -- -- 49
2019-08-12 11:00:00 15.4 12 Nordeste 29 Nordeste 0 -- -- 55
2019-08-12 10:00:00 13.6 15 Nordeste 27 Nordeste 0 -- -- 63
2019-08-12 09:00:00 10.4 10 Nordeste 17 Este 0 -- -- 80
2019-08-12 08:00:00 5.8 3 Sur 8 Sur 0 -- -- 88
2019-08-12 07:00:00 6.2 3 Sur 6 Sur 0 -- -- 87
2019-08-12 06:00:00 6.9 3 Sur 6 Sudeste 0 -- -- 84
2019-08-12 05:00:00 8 0 Calma 8 Sur 0 -- -- 82
2019-08-12 04:00:00 8.8 5 Sur 9 Sur 0 -- -- 80
2019-08-12 03:00:00 10.4 3 Sudeste 5 Sur 0 -- -- 73
2019-08-12 02:00:00 13.1 3 Sur 15 Noroeste 0 -- -- 65
2019-08-12 01:00:00 14.1 8 Noroeste 16 Norte 0 -- -- 61
2019-08-12 00:00:00 15.2 10 Noroeste 21 Norte 0 -- -- 57
2019-08-11 23:00:00 16.6 9 Noroeste 19 Noroeste 0 -- -- 51
2019-08-11 22:00:00 17.9 8 Noroeste 21 Oeste 0 -- -- 42
2019-08-11 21:00:00 19.8 15 Noroeste 28 Oeste 0 -- -- 37
2019-08-11 20:00:00 21.2 15 Noroeste 33 Oeste 0 -- -- 35
2019-08-11 19:00:00 22.1 15 Noroeste 39 Oeste 0 -- -- 32
2019-08-11 18:00:00 22.3 20 Oeste 35 Noroeste 0 -- -- 33
2019-08-11 17:00:00 22.2 22 Oeste 41 Sudoeste 0 -- -- 31
2019-08-11 16:00:00 21.8 17 Oeste 40 Sudoeste 0 -- -- 39
2019-08-11 15:00:00 20.6 19 Oeste 32 Noroeste 0 -- -- 44
2019-08-11 14:00:00 19.2 14 Oeste 26 Oeste 0 -- -- 52
2019-08-11 13:00:00 18 11 Noroeste 30 Noroeste 0 -- -- 60
2019-08-11 12:00:00 16.5 14 Oeste 25 Oeste 0 -- -- 73
2019-08-11 11:00:00 14.7 14 Oeste 22 Noroeste 0 -- -- 81
2019-08-11 10:00:00 14.6 13 Oeste 21 Noroeste 0 -- -- 85
2019-08-11 09:00:00 14 12 Oeste 17 Oeste 0 -- -- 90
2019-08-11 08:00:00 12.6 6 Oeste 13 Oeste 0 -- -- 93
2019-08-11 07:00:00 12.8 4 Sudoeste 8 Oeste 0 -- -- 89
2019-08-11 06:00:00 13.8 2 Este 13 Este 0 -- -- 88
2019-08-11 05:00:00 14.2 6 Nordeste 23 Sudoeste 0.6 -- -- 85
2019-08-11 04:00:00 15.6 13 Noroeste 31 Noroeste -- -- -- 80
2019-08-11 03:00:00 17.3 9 Noroeste 20 Oeste 0 -- -- 65
2019-08-11 02:00:00 18.4 12 Oeste 19 Oeste 0 -- -- 60
2019-08-11 01:00:00 19 3 Noroeste 12 Noroeste 0 -- -- 52
2019-08-11 00:00:00 19 7 Noroeste 13 Noroeste 0 -- -- 52
2019-08-10 23:00:00 19.8 4 Sur 9 Noroeste 0 -- -- 54
2019-08-10 22:00:00 21.7 6 Noroeste 24 Noroeste 0 -- -- 41
2019-08-10 21:00:00 23.5 12 Noroeste 28 Noroeste 0 -- -- 36
2019-08-10 20:00:00 25.2 14 Oeste 27 Noroeste 0 -- -- 35
2019-08-10 19:00:00 26 15 Oeste 28 Oeste 0 -- -- 35
2019-08-10 18:00:00 26.6 13 Oeste 26 Oeste 0 -- -- 37
2019-08-10 17:00:00 25.6 9 Oeste 28 Norte 0 -- -- 36
2019-08-10 16:00:00 24.8 6 Sudoeste 23 Oeste 0 -- -- 40
2019-08-10 15:00:00 23.1 8 Noroeste 16 Sudoeste 0 -- -- 47
2019-08-10 14:00:00 21.9 5 Noroeste 14 Oeste 0 -- -- 52
2019-08-10 13:00:00 20.6 4 Noroeste 13 Oeste 0 -- -- 60
2019-08-10 12:00:00 18.9 5 Nordeste 12 Nordeste 0 -- -- 66
2019-08-10 11:00:00 17.9 6 Sudeste 12 Nordeste 0 -- -- 69
2019-08-10 10:00:00 15.7 3 Sudoeste 5 Noroeste 0 -- -- 82
2019-08-10 09:00:00 12.9 2 Sur 4 Sudeste 0 -- -- 94
2019-08-10 08:00:00 11.9 0 Calma 3 Sudoeste 0 -- -- 93
2019-08-10 07:00:00 12.1 0 Calma 5 Oeste 0 -- -- 93
2019-08-10 06:00:00 11.6 3 Sudeste 4 Sudeste 0 -- -- 93
2019-08-10 05:00:00 11.4 3 Sur 6 Sudeste 0 -- -- 92
2019-08-10 04:00:00 11.7 4 Sudeste 7 Sur 0 -- -- 89
2019-08-10 03:00:00 12.5 4 Sudoeste 6 Sudoeste 0 -- -- 88
2019-08-10 02:00:00 13.5 3 Oeste 7 Sur 0 -- -- 86
2019-08-10 01:00:00 14.7 5 Sudoeste 10 Noroeste 0 -- -- 82
2019-08-10 00:00:00 15.6 5 Oeste 9 Oeste 0 -- -- 77
2019-08-09 23:00:00 16.9 4 Sur 12 Sur 0 -- -- 82
2019-08-09 22:00:00 18.2 9 Sur 13 Sur 0 -- -- 79
2019-08-09 21:00:00 19.9 10 Sur 20 Sudoeste 0 -- -- 71
2019-08-09 20:00:00 19.9 15 Sudoeste 27 Sur 0 -- -- 74
2019-08-09 19:00:00 18.2 21 Sur 36 Sur 0 -- -- 80
2019-08-09 18:00:00 16.6 19 Sur 29 Sudoeste 1.2 -- -- 90
2019-08-09 17:00:00 17.9 22 Sudoeste 35 Sudoeste 0.8 -- -- 85
2019-08-09 16:00:00 21.4 17 Oeste 31 Oeste 0 -- -- 73
2019-08-09 15:00:00 21.8 19 Oeste 38 Oeste 0.2 -- -- 73
2019-08-09 14:00:00 20.9 20 Oeste 32 Oeste 0 -- -- 81
2019-08-09 13:00:00 18.7 15 Oeste 31 Sudoeste 0.6 -- -- 91
2019-08-09 12:00:00 17.4 13 Oeste 26 Oeste 2 -- -- 93
2019-08-09 11:00:00 17.5 13 Oeste 24 Oeste 0 -- -- 91
2019-08-09 10:00:00 18.5 12 Oeste 25 Oeste 0.6 -- -- 91
2019-08-09 09:00:00 20.1 21 Sur 34 Sur 0 -- -- 84
2019-08-09 08:00:00 20 19 Sudoeste 31 Sudoeste 0 -- -- 79
2019-08-09 07:00:00 19.2 9 Sur 18 Sur 0 -- -- 82
2019-08-09 06:00:00 19.2 10 Sudoeste 21 Sudoeste 0 -- -- 81
2019-08-09 05:00:00 19.7 15 Sur 23 Sudoeste 0 -- -- 77
2019-08-09 04:00:00 20 12 Sudoeste 19 Sudoeste 0 -- -- 73
2019-08-09 03:00:00 19.6 11 Sudoeste 18 Sudoeste 0 -- -- 71
2019-08-09 02:00:00 20.2 9 Sudoeste 13 Sudoeste 0 -- -- 68
2019-08-09 01:00:00 21.6 10 Sudoeste 25 Sudoeste 0 -- -- 63
2019-08-09 00:00:00 22.8 16 Sudoeste 27 Sudoeste 0 -- -- 59
2019-08-08 23:00:00 23.5 17 Sudoeste 32 Sudoeste 0 -- -- 57
2019-08-08 22:00:00 24.5 16 Sudoeste 35 Sudoeste 0 -- -- 53
2019-08-08 21:00:00 26.8 22 Oeste 41 Sudoeste 0 -- -- 47
2019-08-08 20:00:00 28.9 28 Sudoeste 44 Sudoeste 0 -- -- 40
2019-08-08 19:00:00 29.2 26 Sudoeste 45 Sudoeste 0 -- -- 41
2019-08-08 18:00:00 29.6 25 Sudoeste 47 Sudoeste 0 -- -- 41
2019-08-08 17:00:00 29.8 24 Sudoeste 44 Sudoeste 0 -- -- 40
2019-08-08 16:00:00 29 20 Sudoeste 42 Oeste 0 -- -- 42
2019-08-08 15:00:00 28.8 21 Sudoeste 36 Sudoeste 0 -- -- 43
2019-08-08 14:00:00 28.9 23 Sudoeste 38 Sudoeste 0 -- -- 43
2019-08-08 13:00:00 26.5 20 Sudoeste 36 Sudoeste 0 -- -- 51
2019-08-08 12:00:00 26.3 18 Sudoeste 35 Sudoeste 0 -- -- 53
2019-08-08 11:00:00 24.6 19 Sudoeste 32 Sudoeste 0 -- -- 55
2019-08-08 10:00:00 22.6 18 Sudoeste 30 Sudoeste 0 -- -- 59
2019-08-08 09:00:00 20.7 21 Sur 27 Sur 0 -- -- 65
2019-08-08 08:00:00 19.1 11 Sur 18 Sur 0 -- -- 71
2019-08-08 07:00:00 18.6 5 Sur 20 Oeste 0 -- -- 74
2019-08-08 06:00:00 19.7 5 Sudoeste 14 Sur 0 -- -- 65
2019-08-08 05:00:00 19.8 8 Sur 11 Sur 0 -- -- 65
2019-08-08 04:00:00 19.8 3 Sudeste 16 Sudoeste 0 -- -- 66
2019-08-08 03:00:00 19.7 14 Oeste 30 Oeste 0 -- -- 68
2019-08-08 02:00:00 20.3 10 Sur 19 Sudoeste 0 -- -- 64
2019-08-08 01:00:00 19.8 11 Sur 20 Sudoeste 0 -- -- 67
2019-08-08 00:00:00 20.4 15 Sur 23 Sur 0 -- -- 64
2019-08-07 23:00:00 21 12 Sur 20 Sur 0 -- -- 59
2019-08-07 22:00:00 21.9 14 Sur 25 Sur 0 -- -- 56
2019-08-07 21:00:00 24.1 14 Sudoeste 26 Sudoeste 0 -- -- 50
2019-08-07 20:00:00 25.2 13 Oeste 29 Sudoeste 0 -- -- 45
2019-08-07 19:00:00 25.3 17 Sudoeste 29 Sudoeste 0 -- -- 42
2019-08-07 18:00:00 24.6 17 Oeste 24 Oeste 0 -- -- 46
2019-08-07 17:00:00 24.6 18 Oeste 32 Oeste 0 -- -- 46
2019-08-07 16:00:00 24.9 15 Oeste 23 Sudoeste 0 -- -- 44
2019-08-07 15:00:00 24.9 13 Sudoeste 23 Oeste 0 -- -- 44
2019-08-07 14:00:00 25 17 Oeste 29 Sudoeste 0 -- -- 44
2019-08-07 13:00:00 24.7 15 Oeste 23 Sudoeste 0 -- -- 42
2019-08-07 12:00:00 23.3 10 Sudoeste 18 Oeste 0 -- -- 54
2019-08-07 11:00:00 22.4 9 Oeste 15 Oeste 0 -- -- 61
2019-08-07 10:00:00 20.3 6 Sudoeste 12 Sudoeste 0 -- -- 72
2019-08-07 09:00:00 18.3 8 Sudoeste 15 Oeste 0 -- -- 80
2019-08-07 08:00:00 17.5 5 Sudoeste 9 Sudoeste 0 -- -- 81
2019-08-07 07:00:00 17.9 5 Oeste 9 Noroeste 0 -- -- 78
2019-08-07 06:00:00 18.4 6 Oeste 13 Oeste 0 -- -- 73
2019-08-07 05:00:00 19.5 6 Oeste 10 Oeste 0 -- -- 68
2019-08-07 04:00:00 20.4 6 Oeste 12 Oeste 0 -- -- 65
2019-08-07 03:00:00 21.1 5 Sudoeste 13 Sudoeste 0 -- -- 64
2019-08-07 02:00:00 21.4 8 Oeste 14 Oeste 0 -- -- 63
2019-08-07 01:00:00 22.3 8 Oeste 17 Noroeste 0 -- -- 60
2019-08-07 00:00:00 22.9 9 Oeste 17 Oeste 0 -- -- 59
2019-08-06 23:00:00 23.6 9 Noroeste 22 Noroeste 0 -- -- 57
2019-08-06 22:00:00 24.6 14 Noroeste 31 Noroeste 0 -- -- 51
2019-08-06 21:00:00 27 15 Noroeste 27 Noroeste 0 -- -- 39
2019-08-06 20:00:00 28.7 17 Oeste 28 Oeste 0 -- -- 33
2019-08-06 19:00:00 30 14 Noroeste 27 Noroeste 0 -- -- 31
2019-08-06 18:00:00 31.1 18 Oeste 33 Oeste 0 -- -- 30
2019-08-06 17:00:00 32 14 Oeste 45 Oeste 0 -- -- 30
2019-08-06 16:00:00 31.6 15 Oeste 31 Oeste 0 -- -- 29
2019-08-06 15:00:00 30.6 15 Noroeste 26 Noroeste 0 -- -- 30
2019-08-06 14:00:00 30 14 Sudoeste 24 Sudoeste 0 -- -- 32
2019-08-06 13:00:00 28 9 Oeste 22 Oeste 0 -- -- 41
2019-08-06 12:00:00 25.8 8 Noroeste 14 Noroeste 0 -- -- 50
2019-08-06 11:00:00 23.9 5 Norte 10 Norte 0 -- -- 55
2019-08-06 10:00:00 21.5 2 Este 6 Sudeste 0 -- -- 63
2019-08-06 09:00:00 18.2 2 Oeste 8 Sudoeste 0 -- -- 72
2019-08-06 08:00:00 15.5 6 Sur 9 Sur 0 -- -- 79
2019-08-06 07:00:00 15.3 4 Sur 10 Sur 0 -- -- 75
2019-08-06 06:00:00 16 3 Sur 8 Sur 0 -- -- 72
2019-08-06 05:00:00 16.7 4 Sur 8 Sur 0 -- -- 67
2019-08-06 04:00:00 18.3 3 Sur 11 Oeste 0 -- -- 63
2019-08-06 03:00:00 19.4 6 Oeste 12 Sudoeste 0 -- -- 57
2019-08-06 02:00:00 19.9 7 Sudoeste 10 Sudoeste 0 -- -- 54
2019-08-06 01:00:00 20.1 4 Sudeste 8 Sur 0 -- -- 48
2019-08-06 00:00:00 20.7 5 Sur 6 Sur 0 -- -- 45
2019-08-05 23:00:00 23.4 3 Sudoeste 9 Oeste 0 -- -- 39
2019-08-05 22:00:00 27.3 6 Noroeste 18 Oeste 0 -- -- 33
2019-08-05 21:00:00 29.8 12 Noroeste 33 Oeste 0 -- -- 27
2019-08-05 20:00:00 31.4 15 Oeste 28 Oeste 0 -- -- 26
2019-08-05 19:00:00 31.8 18 Oeste 31 Oeste 0 -- -- 24
2019-08-05 18:00:00 32.1 16 Noroeste 31 Oeste 0 -- -- 23
2019-08-05 17:00:00 32.3 16 Oeste 32 Oeste 0 -- -- 22
2019-08-05 16:00:00 31.7 17 Oeste 31 Oeste 0 -- -- 23
2019-08-05 15:00:00 30.8 13 Oeste 27 Noroeste 0 -- -- 26
2019-08-05 14:00:00 29.1 10 Oeste 24 Oeste 0 -- -- 32
2019-08-05 13:00:00 27.2 7 Sudoeste 16 Sudoeste 0 -- -- 41
2019-08-05 12:00:00 24.9 5 Oeste 10 Noroeste 0 -- -- 51
2019-08-05 11:00:00 22.1 5 Norte 10 Noroeste 0 -- -- 61
2019-08-05 10:00:00 19.3 4 Noroeste 10 Sudoeste 0 -- -- 73
2019-08-05 09:00:00 16.6 3 Sudoeste 8 Oeste 0 -- -- 84
2019-08-05 08:00:00 13.2 4 Sur 6 Sur 0 -- -- 85
2019-08-05 07:00:00 13.7 0 Calma 6 Sudoeste 0 -- -- 82
2019-08-05 06:00:00 14.5 4 Sur 8 Sur 0 -- -- 80
2019-08-05 05:00:00 15.7 4 Sur 5 Sur 0 -- -- 76
2019-08-05 04:00:00 17.2 3 Sur 5 Oeste 0 -- -- 70
2019-08-05 03:00:00 18.8 0 Calma 10 Sudoeste 0 -- -- 64
2019-08-05 02:00:00 20.1 5 Sudoeste 11 Sudoeste 0 -- -- 61
2019-08-05 01:00:00 21.8 4 Sudoeste 12 Oeste 0 -- -- 54
2019-08-05 00:00:00 22.9 6 Sudoeste 14 Oeste 0 -- -- 49
2019-08-04 23:00:00 23.4 3 Sudoeste 10 Noroeste 0 -- -- 42
2019-08-04 22:00:00 27.5 6 Noroeste 15 Noroeste 0 -- -- 34
2019-08-04 21:00:00 29.8 11 Noroeste 24 Oeste 0 -- -- 31
2019-08-04 20:00:00 31 17 Noroeste 32 Noroeste 0 -- -- 29
2019-08-04 19:00:00 32.3 13 Noroeste 32 Oeste 0 -- -- 29
2019-08-04 18:00:00 32.6 17 Oeste 34 Oeste 0 -- -- 29
2019-08-04 17:00:00 32.5 17 Oeste 32 Oeste 0 -- -- 27
2019-08-04 16:00:00 31.8 11 Oeste 35 Oeste 0 -- -- 31
2019-08-04 15:00:00 30.9 14 Oeste 32 Sudoeste 0 -- -- 32
2019-08-04 14:00:00 29.3 10 Oeste 26 Sudoeste 0 -- -- 39
2019-08-04 13:00:00 27.7 8 Sudoeste 17 Oeste 0 -- -- 44
2019-08-04 12:00:00 24.8 7 Noroeste 16 Noroeste 0 -- -- 54
2019-08-04 11:00:00 22.5 7 Oeste 22 Oeste 0 -- -- 62
2019-08-04 10:00:00 20.4 9 Oeste 17 Sudoeste 0 -- -- 68
2019-08-04 09:00:00 18.1 10 Oeste 14 Oeste 0 -- -- 75
2019-08-04 08:00:00 15 2 Sur 6 Sur 0 -- -- 80
2019-08-04 07:00:00 15.6 3 Sur 7 Sur 0 -- -- 75
2019-08-04 06:00:00 16.6 4 Sudoeste 8 Sur 0 -- -- 73
2019-08-04 05:00:00 17.9 5 Sudoeste 7 Sudoeste 0 -- -- 69
2019-08-04 04:00:00 19.1 4 Sudoeste 14 Sudoeste 0 -- -- 65
2019-08-04 03:00:00 20.3 6 Sudoeste 24 Oeste 0 -- -- 57
2019-08-04 02:00:00 21.3 13 Oeste 22 Sudoeste 0 -- -- 54
2019-08-04 01:00:00 22.4 12 Sudoeste 17 Sudoeste 0 -- -- 48
2019-08-04 00:00:00 23.6 8 Sudoeste 13 Sudoeste 0 -- -- 42
2019-08-03 23:00:00 25.9 7 Oeste 20 Oeste 0 -- -- 36
2019-08-03 22:00:00 28 4 Oeste 16 Oeste 0 -- -- 30
2019-08-03 21:00:00 30.7 11 Oeste 22 Oeste 0 -- -- 26
2019-08-03 20:00:00 32 11 Oeste 26 Oeste 0 -- -- 25
2019-08-03 19:00:00 32.9 11 Oeste 28 Oeste 0 -- -- 24
2019-08-03 18:00:00 33.2 15 Oeste 30 Oeste 0 -- -- 23
2019-08-03 17:00:00 33 13 Oeste 30 Oeste 0 -- -- 24
2019-08-03 16:00:00 32.1 13 Noroeste 32 Oeste 0 -- -- 24
2019-08-03 15:00:00 31.5 15 Oeste 30 Sudoeste 0 -- -- 25
2019-08-03 14:00:00 30.8 11 Oeste 32 Oeste 0 -- -- 28
2019-08-03 13:00:00 29.3 17 Oeste 27 Oeste 0 -- -- 33
2019-08-03 12:00:00 26.6 8 Sudoeste 18 Oeste 0 -- -- 42
2019-08-03 11:00:00 23.4 5 Oeste 12 Oeste 0 -- -- 53
2019-08-03 10:00:00 20.8 6 Oeste 12 Oeste 0 -- -- 63
2019-08-03 09:00:00 17.5 3 Sudoeste 10 Oeste 0 -- -- 74
2019-08-03 08:00:00 13.5 4 Sudeste 7 Sur 0 -- -- 75
2019-08-03 07:00:00 13.3 4 Sur 5 Sur 0 -- -- 70
2019-08-03 06:00:00 14.2 3 Sur 4 Sur 0 -- -- 65
2019-08-03 05:00:00 15.6 3 Sudeste 7 Sur 0 -- -- 59
2019-08-03 04:00:00 15.5 5 Sur 6 Sur 0 -- -- 58
2019-08-03 03:00:00 16.2 5 Sur 7 Sur 0 -- -- 55
2019-08-03 02:00:00 17.6 4 Sur 8 Sur 0 -- -- 51
2019-08-03 01:00:00 18.7 8 Sur 9 Sur 0 -- -- 48
2019-08-03 00:00:00 20.4 6 Sudeste 11 Sur 0 -- -- 44
2019-08-02 23:00:00 22.9 6 Sur 8 Sudeste 0 -- -- 39
2019-08-02 22:00:00 27.9 2 Noroeste 6 Noroeste 0 -- -- 31
2019-08-02 21:00:00 31 5 Noroeste 18 Oeste 0 -- -- 25
2019-08-02 20:00:00 32 8 Noroeste 22 Noroeste 0 -- -- 24
2019-08-02 19:00:00 32 9 Noroeste 22 Noroeste 0 -- -- 25
2019-08-02 18:00:00 31.9 7 Norte 22 Noroeste 0 -- -- 24
2019-08-02 17:00:00 31.5 10 Noroeste 23 Noroeste 0 -- -- 22
2019-08-02 16:00:00 30.9 8 Norte 22 Noroeste 0 -- -- 25
2019-08-02 15:00:00 30.2 10 Nordeste 18 Norte 0 -- -- 28
2019-08-02 14:00:00 29.1 6 Oeste 17 Oeste 0 -- -- 36
2019-08-02 13:00:00 26.6 8 Nordeste 17 Nordeste 0 -- -- 42
2019-08-02 12:00:00 24.3 5 Nordeste 15 Este 0 -- -- 51
2019-08-02 11:00:00 21.6 6 Este 16 Este 0 -- -- 61
2019-08-02 10:00:00 18.8 11 Este 17 Este 0 -- -- 71
2019-08-02 09:00:00 14.4 2 Noroeste 4 Sur 0 -- -- 72
2019-08-02 08:00:00 11.4 0 Calma 4 Sur 0 -- -- 77
2019-08-02 07:00:00 11.7 0 Calma 5 Sur 0 -- -- 73
2019-08-02 06:00:00 12.9 4 Sur 6 Sur 0 -- -- 70
2019-08-02 05:00:00 14.4 3 Sudeste 6 Sur 0 -- -- 67
2019-08-02 04:00:00 16.2 3 Sudoeste 8 Sudoeste 0 -- -- 60
2019-08-02 03:00:00 17.3 3 Sudoeste 6 Oeste 0 -- -- 56
2019-08-02 02:00:00 18.3 5 Sudoeste 10 Oeste 0 -- -- 52
2019-08-02 01:00:00 18.6 4 Sudoeste 6 Sudoeste 0 -- -- 47
2019-08-02 00:00:00 18.6 6 Sur 8 Sur 0 -- -- 42
2019-08-01 23:00:00 21.1 6 Sur 7 Sudeste 0 -- -- 36
2019-08-01 22:00:00 25.8 2 Oeste 14 Noroeste 0 -- -- 28
2019-08-01 21:00:00 28.6 12 Noroeste 22 Oeste 0 -- -- 24
2019-08-01 20:00:00 30 13 Oeste 28 Oeste 0 -- -- 24
2019-08-01 19:00:00 30.5 16 Oeste 34 Oeste 0 -- -- 23
2019-08-01 18:00:00 30.8 17 Oeste 33 Oeste 0 -- -- 24
2019-08-01 17:00:00 30.7 14 Oeste 27 Oeste 0 -- -- 23
2019-08-01 16:00:00 30.4 14 Oeste 31 Oeste 0 -- -- 23
2019-08-01 15:00:00 28.8 10 Noroeste 22 Oeste 0 -- -- 31
2019-08-01 14:00:00 27.5 13 Sudoeste 20 Sudoeste 0 -- -- 33
2019-08-01 13:00:00 25.9 9 Oeste 15 Noroeste 0 -- -- 39
2019-08-01 12:00:00 23.2 7 Noroeste 15 Noroeste 0 -- -- 47
2019-08-01 11:00:00 20.7 6 Noroeste 12 Noroeste 0 -- -- 55
2019-08-01 10:00:00 18.1 3 Norte 8 Norte 0 -- -- 66
2019-08-01 09:00:00 15.2 4 Norte 7 Norte 0 -- -- 76
2019-08-01 08:00:00 11.4 2 Sur 10 Sur 0 -- -- 77
2019-08-01 07:00:00 11.7 2 Sudoeste 9 Sur 0 -- -- 74
2019-08-01 06:00:00 12.5 5 Sudeste 7 Sur 0 -- -- 70
2019-08-01 05:00:00 13.7 3 Sur 8 Sur 0 -- -- 67
2019-08-01 04:00:00 14.9 3 Sudeste 6 Sur 0 -- -- 62
2019-08-01 03:00:00 16.9 2 Sur 3 Sudoeste 0 -- -- 57
2019-08-01 02:00:00 18 0 Calma 4 Sudeste 0 -- -- 54
2019-08-01 01:00:00 19.2 0 Calma 7 Oeste 0 -- -- 49
2019-08-01 00:00:00 20.4 4 Sudeste 8 Este 0 -- -- 46
2019-07-31 23:00:00 22.7 3 Norte 10 Norte 0 -- -- 39
2019-07-31 22:00:00 23.9 5 Norte 17 Norte 0 -- -- 37
2019-07-31 21:00:00 25.6 10 Norte 20 Norte 0 -- -- 33
2019-07-31 20:00:00 27.3 7 Norte 18 Norte 0 -- -- 31
2019-07-31 19:00:00 27.8 9 Norte 20 Nordeste 0 -- -- 31
2019-07-31 18:00:00 28.3 9 Norte 19 Norte 0 -- -- 31
2019-07-31 17:00:00 28.3 9 Norte 19 Norte 0 -- -- 31
2019-07-31 16:00:00 28 9 Este 21 Este 0 -- -- 33
2019-07-31 15:00:00 27.1 9 Este 22 Este 0 -- -- 35
2019-07-31 14:00:00 25.2 10 Nordeste 26 Nordeste 0 -- -- 40
2019-07-31 13:00:00 22.7 11 Nordeste 23 Norte 0 -- -- 46
2019-07-31 12:00:00 20.4 11 Nordeste 25 Nordeste 0 -- -- 50
2019-07-31 11:00:00 17.6 10 Nordeste 23 Norte 0 -- -- 57
2019-07-31 10:00:00 15.8 10 Nordeste 20 Norte 0 -- -- 62
2019-07-31 09:00:00 13.8 10 Nordeste 25 Nordeste 0 -- -- 69
2019-07-31 08:00:00 11.2 4 Norte 8 Nordeste 0 -- -- 78
2019-07-31 07:00:00 11.6 5 Nordeste 13 Nordeste 0 -- -- 75
2019-07-31 06:00:00 12.5 6 Nordeste 11 Este 0 -- -- 70
2019-07-31 05:00:00 13.4 6 Nordeste 15 Nordeste 0 -- -- 65
2019-07-31 04:00:00 14.5 8 Nordeste 20 Este 0 -- -- 60
2019-07-31 03:00:00 15.5 14 Este 24 Este 0 -- -- 52
2019-07-31 02:00:00 12 3 Este 10 Este 0 -- -- 56
2019-07-31 01:00:00 13.1 3 Sudoeste 8 Sur 0 -- -- 53
2019-07-31 00:00:00 14.8 5 Sur 8 Noroeste 0 -- -- 47
2019-07-30 23:00:00 17.9 3 Sur 6 Este 0 -- -- 40
2019-07-30 22:00:00 21 4 Nordeste 20 Norte 0 -- -- 33
2019-07-30 21:00:00 23.5 9 Norte 22 Norte 0 -- -- 28
2019-07-30 20:00:00 24.3 8 Norte 28 Nordeste 0 -- -- 25
2019-07-30 19:00:00 24.8 12 Norte 26 Nordeste 0 -- -- 25
2019-07-30 18:00:00 24.7 11 Norte 27 Norte 0 -- -- 25
2019-07-30 17:00:00 24.4 12 Norte 32 Norte 0 -- -- 23
2019-07-30 16:00:00 24.2 16 Nordeste 28 Este 0 -- -- 26
2019-07-30 15:00:00 22.5 11 Norte 27 Norte 0 -- -- 31
2019-07-30 14:00:00 21.1 10 Norte 23 Nordeste 0 -- -- 34
2019-07-30 13:00:00 19.3 9 Norte 23 Norte 0 -- -- 40
2019-07-30 12:00:00 17.9 12 Nordeste 21 Nordeste 0 -- -- 45
2019-07-30 11:00:00 15.7 12 Nordeste 25 Nordeste 0 -- -- 54
2019-07-30 10:00:00 14.5 13 Nordeste 22 Nordeste 0 -- -- 58
2019-07-30 09:00:00 10.2 2 Sudeste 4 Sudeste 0 -- -- 80
2019-07-30 08:00:00 7.2 2 Sudoeste 6 Sudoeste 0 -- -- 84
2019-07-30 07:00:00 7.2 4 Sur 8 Sur 0 -- -- 84
2019-07-30 06:00:00 7.8 5 Sur 8 Sur 0 -- -- 82
2019-07-30 05:00:00 8.9 2 Sur 6 Sur 0 -- -- 75
2019-07-30 04:00:00 10.3 6 Sur 10 Sudoeste 0 -- -- 73
2019-07-30 03:00:00 12.2 4 Sur 10 Oeste 0 -- -- 67
2019-07-30 02:00:00 13.6 6 Oeste 11 Oeste 0 -- -- 60
2019-07-30 01:00:00 15 7 Noroeste 18 Oeste 0 -- -- 55
2019-07-30 00:00:00 16.7 11 Noroeste 24 Oeste 0 -- -- 51
2019-07-29 23:00:00 18.3 11 Noroeste 23 Oeste 0 -- -- 46
2019-07-29 22:00:00 19.9 11 Noroeste 26 Oeste 0 -- -- 40
2019-07-29 21:00:00 22.1 15 Noroeste 33 Noroeste 0 -- -- 32
2019-07-29 20:00:00 23.6 18 Oeste 33 Noroeste 0 -- -- 29
2019-07-29 19:00:00 24.5 21 Noroeste 36 Noroeste 0 -- -- 31
2019-07-29 18:00:00 25.2 18 Oeste 35 Oeste 0 -- -- 30
2019-07-29 17:00:00 25.3 19 Noroeste 36 Noroeste 0 -- -- 28
2019-07-29 16:00:00 24.7 17 Oeste 36 Oeste 0 -- -- 34
2019-07-29 15:00:00 24.1 20 Oeste 39 Oeste 0 -- -- 37
2019-07-29 14:00:00 23.1 18 Oeste 32 Oeste 0 -- -- 41
2019-07-29 13:00:00 21.7 15 Oeste 30 Oeste 0 -- -- 51
2019-07-29 12:00:00 20 17 Oeste 40 Oeste 0 -- -- 60
2019-07-29 11:00:00 18.7 16 Oeste 28 Sudoeste 0 -- -- 67
2019-07-29 10:00:00 17.9 12 Oeste 19 Oeste 0 -- -- 58
2019-07-29 09:00:00 15.9 9 Oeste 15 Sudoeste 0 -- -- 52
2019-07-29 08:00:00 13.1 9 Sudoeste 16 Sudoeste 0 -- -- 69
2019-07-29 07:00:00 12.7 3 Sudoeste 14 Sudoeste 0 -- -- 72
2019-07-29 06:00:00 13.5 9 Sudoeste 16 Oeste 0 -- -- 69
2019-07-29 05:00:00 14.4 10 Sudoeste 15 Sudoeste 0 -- -- 69
2019-07-29 04:00:00 15.7 8 Oeste 18 Sudoeste 0 -- -- 68
2019-07-29 03:00:00 17.2 8 Sudoeste 19 Oeste 0 -- -- 66
2019-07-29 02:00:00 16.9 10 Oeste 17 Oeste 0 -- -- 61
2019-07-29 01:00:00 15.9 6 Sur 7 Sur 0 -- -- 49
2019-07-29 00:00:00 17.1 6 Sur 9 Sur 0 -- -- 44
2019-07-28 23:00:00 19.8 5 Sur 7 Sur 0 -- -- 36
2019-07-28 22:00:00 24.2 5 Noroeste 18 Noroeste 0 -- -- 26
2019-07-28 21:00:00 27 11 Oeste 23 Oeste 0 -- -- 23
2019-07-28 20:00:00 28 10 Noroeste 25 Oeste 0 -- -- 25
2019-07-28 19:00:00 28.1 12 Oeste 32 Noroeste 0 -- -- 22
2019-07-28 18:00:00 28.5 11 Oeste 32 Noroeste 0 -- -- 25
2019-07-28 17:00:00 28.2 13 Oeste 29 Oeste 0 -- -- 25
2019-07-28 16:00:00 26.9 9 Sudoeste 27 Oeste 0 -- -- 29
2019-07-28 15:00:00 25.6 12 Noroeste 22 Oeste 0 -- -- 33
2019-07-28 14:00:00 23.7 8 Noroeste 17 Nordeste 0 -- -- 38
2019-07-28 13:00:00 22.7 6 Sudeste 21 Este 0 -- -- 44
2019-07-28 12:00:00 21 10 Este 23 Nordeste 0 -- -- 50
2019-07-28 11:00:00 19 15 Este 23 Este 0 -- -- 55
2019-07-28 10:00:00 16.3 13 Este 21 Este 0 -- -- 66
2019-07-28 09:00:00 13.9 10 Este 15 Este 0 -- -- 75
2019-07-28 08:00:00 11.8 2 Este 10 Este 0 -- -- 82
2019-07-28 07:00:00 11.3 5 Este 13 Este 0 -- -- 83
2019-07-28 06:00:00 12.1 7 Este 18 Nordeste 0 -- -- 80
2019-07-28 05:00:00 13.1 13 Este 19 Nordeste 0 -- -- 76
2019-07-28 04:00:00 13.8 11 Este 22 Este 0 -- -- 74
2019-07-28 03:00:00 14.5 15 Nordeste 29 Este 0 -- -- 72
2019-07-28 02:00:00 15.9 17 Este 36 Este 0 -- -- 70
2019-07-28 01:00:00 17.5 14 Nordeste 32 Nordeste 0 -- -- 66
2019-07-28 00:00:00 18.1 8 Nordeste 16 Este 0 -- -- 64
2019-07-27 23:00:00 19.8 7 Noroeste 15 Noroeste 0 -- -- 57
2019-07-26 12:00:00 -- -- -- -- -- -- -- -- --
2019-07-26 11:00:00 17.8 16 Oeste 24 Oeste 0 -- -- 57
2019-07-26 10:00:00 15.9 11 Oeste 23 Oeste 0 -- -- 68
2019-07-26 09:00:00 14.3 16 Oeste 27 Oeste 0 -- -- 74
2019-07-26 08:00:00 14.9 13 Oeste 22 Oeste 0 -- -- 74
2019-07-26 07:00:00 15.9 13 Noroeste 24 Oeste 0 -- -- 76
2019-07-26 06:00:00 16.9 12 Noroeste 21 Noroeste 0 -- -- 73
2019-07-26 05:00:00 17.1 13 Noroeste 22 Oeste 0 -- -- 74
2019-07-26 04:00:00 18.1 12 Noroeste 23 Noroeste 0 -- -- 77
2019-07-26 03:00:00 19.1 11 Oeste 20 Oeste 0 -- -- 76
2019-07-26 02:00:00 19.2 11 Oeste 26 Oeste 0 -- -- 77
2019-07-26 01:00:00 19.5 15 Oeste 28 Oeste 0 -- -- 75
2019-07-26 00:00:00 21 14 Oeste 29 Oeste 0 -- -- 70
2019-07-25 23:00:00 22.6 14 Oeste 27 Oeste 0 -- -- 63
2019-07-25 22:00:00 24.2 10 Noroeste 30 Oeste 0 -- -- 53
2019-07-25 21:00:00 26.2 16 Oeste 39 Sudoeste 0 -- -- 43
2019-07-25 20:00:00 29.2 19 Sudoeste 37 Sudoeste 0 -- -- 25
2019-07-25 19:00:00 30.7 23 Sur 38 Sur 0 -- -- 26
2019-07-25 18:00:00 31.1 20 Sudoeste 40 Sudoeste 0 -- -- 29
2019-07-25 17:00:00 31.3 22 Sudoeste 39 Sur 0 -- -- 29
2019-07-25 16:00:00 30.6 26 Sudoeste 39 Sur 0 -- -- 28
2019-07-25 15:00:00 30.2 23 Sur 48 Sudoeste 0 -- -- 29
2019-07-25 14:00:00 29 29 Sudoeste 49 Sudoeste 0 -- -- 31
2019-07-25 13:00:00 29.5 30 Sudoeste 48 Sur 0 -- -- 30
2019-07-25 12:00:00 29 22 Sudoeste 40 Sudoeste 0 -- -- 32
2019-07-25 11:00:00 25.5 10 Oeste 19 Oeste 0 -- -- 38
2019-07-25 10:00:00 23.4 10 Noroeste 23 Noroeste 0 -- -- 43
2019-07-25 09:00:00 19.7 3 Sur 5 Sudoeste 0 -- -- 60
2019-07-25 08:00:00 15.6 3 Sudeste 5 Sudoeste 0 -- -- 74
2019-07-25 07:00:00 15.7 2 Noroeste 7 Este 0 -- -- 68
2019-07-25 06:00:00 16.7 3 Sur 8 Sur 0 -- -- 61
2019-07-25 05:00:00 17.4 5 Sudoeste 8 Sur 0 -- -- 58
2019-07-25 04:00:00 18.6 6 Sur 8 Sur 0 -- -- 56
2019-07-25 03:00:00 20 4 Sudoeste 10 Sudoeste 0 -- -- 49
2019-07-25 02:00:00 21.3 5 Sudoeste 13 Sudoeste 0 -- -- 48
2019-07-25 01:00:00 22.8 9 Sudoeste 13 Sudoeste 0 -- -- 43
2019-07-25 00:00:00 24.8 9 Oeste 18 Oeste 0 -- -- 42
2019-07-24 23:00:00 25.6 6 Oeste 16 Oeste 0 -- -- 43
2019-07-24 22:00:00 29.5 4 Sur 18 Sur 0 -- -- 37
2019-07-24 21:00:00 31.9 14 Sudoeste 23 Sur 0 -- -- 30
2019-07-24 20:00:00 33 12 Sudoeste 30 Sudoeste 0 -- -- 28
2019-07-24 19:00:00 33.4 19 Sur 36 Sudoeste 0 -- -- 25
2019-07-24 18:00:00 33.1 21 Sur 37 Sudoeste 0 -- -- 26
2019-07-24 17:00:00 33.5 19 Sudeste 36 Sudoeste 0 -- -- 28
2019-07-24 16:00:00 33.3 20 Sudoeste 36 Sudoeste 0 -- -- 28
2019-07-24 15:00:00 32.5 21 Sudoeste 40 Sudoeste 0 -- -- 30
2019-07-24 14:00:00 32.5 18 Sudoeste 36 Sudoeste 0 -- -- 32
2019-07-24 13:00:00 30.8 19 Sudoeste 37 Oeste 0 -- -- 34
2019-07-24 12:00:00 29.3 6 Noroeste 15 Noroeste 0 -- -- 43
2019-07-24 11:00:00 26.8 2 Oeste 8 Norte 0 -- -- 53
2019-07-24 10:00:00 23.4 3 Norte 14 Este 0 -- -- 62
2019-07-24 09:00:00 20 2 Sur 5 Noroeste 0 -- -- 81
2019-07-24 08:00:00 17.5 0 Calma 6 Sudeste 0 -- -- 86
2019-07-24 07:00:00 17.6 3 Sudeste 6 Sur 0 -- -- 85
2019-07-24 06:00:00 18.7 5 Sudeste 8 Sur 0 -- -- 82
2019-07-24 05:00:00 19.7 0 Calma 8 Sur 0 -- -- 78
2019-07-24 04:00:00 19.9 7 Sudeste 11 Sudeste 0 -- -- 77
2019-07-24 03:00:00 20.4 5 Sur 8 Sur 0 -- -- 77
2019-07-24 02:00:00 21.7 2 Sur 6 Sur 0 -- -- 72
2019-07-24 01:00:00 22.7 5 Oeste 13 Sudoeste 0 -- -- 66
2019-07-24 00:00:00 23.4 3 Este 7 Sudeste 0 -- -- 63
2019-07-23 23:00:00 25.1 3 Oeste 9 Oeste 0 -- -- 55
2019-07-23 22:00:00 27.3 4 Noroeste 22 Oeste 0 -- -- 47
2019-07-23 21:00:00 29.7 9 Oeste 19 Oeste 0 -- -- 40
2019-07-23 20:00:00 32.6 10 Sudoeste 33 Sur 0 -- -- 28
2019-07-23 19:00:00 33.2 15 Sur 42 Sudoeste 0 -- -- 26
2019-07-23 18:00:00 33.1 20 Sudoeste 40 Sudoeste 0 -- -- 29
2019-07-23 17:00:00 33.2 22 Sudoeste 41 Sur 0 -- -- 29
2019-07-23 16:00:00 32.6 22 Sur 35 Sur 0 -- -- 31
2019-07-23 15:00:00 32.3 25 Sudoeste 44 Sur 0 -- -- 32
2019-07-23 14:00:00 31.3 22 Sur 37 Sur 0 -- -- 34
2019-07-23 13:00:00 29.4 11 Sur 30 Sur 0 -- -- 35
2019-07-23 12:00:00 27 11 Sudeste 26 Sudeste 0 -- -- 48
2019-07-23 11:00:00 24.8 6 Sudoeste 11 Sudoeste 0 -- -- 56
2019-07-23 10:00:00 21.7 6 Este 11 Sudeste 0 -- -- 68
2019-07-23 09:00:00 20.4 6 Sur 11 Norte 0 -- -- 76
2019-07-23 08:00:00 19.5 7 Noroeste 13 Este 0.2 -- -- 74
2019-07-23 07:00:00 20.1 7 Sudeste 33 Sudeste 0.4 -- -- 73
2019-07-23 06:00:00 21.9 13 Sur 24 Sudoeste 0 -- -- 62
2019-07-23 05:00:00 22 10 Sur 30 Este 0.2 -- -- 62
2019-07-23 04:00:00 22.6 19 Este 30 Este 0 -- -- 53
2019-07-23 03:00:00 23.1 23 Este 33 Este 0 -- -- 52
2019-07-23 02:00:00 23.1 17 Este 48 Este 0 -- -- 54
2019-07-23 01:00:00 22.5 17 Este 36 Sudeste 0 -- -- 58
2019-07-23 00:00:00 22.5 11 Norte 36 Nordeste 0.6 -- -- 61
2019-07-22 23:00:00 23.3 4 Sur 41 Este 0 -- -- 59
2019-07-22 22:00:00 22.8 4 Sudeste 6 Sur 0 -- -- 87
2019-07-22 21:00:00 23 3 Este 13 Oeste 0 -- -- 82
2019-07-22 20:00:00 22.7 4 Sur 10 Sur 0 -- -- 84
2019-07-22 19:00:00 21.3 3 Sur 9 Sur 0 -- -- 83
2019-07-22 18:00:00 20.4 4 Sudeste 51 Sur 8.2 -- -- 84
2019-07-22 17:00:00 26.1 27 Sudeste 71 Este 1.6 -- -- 52
2019-07-22 16:00:00 35.3 6 Norte 24 Nordeste 0 -- -- 25
2019-07-22 15:00:00 35.9 8 Noroeste 21 Noroeste 0 -- -- 24
2019-07-22 14:00:00 34.8 9 Oeste 22 Noroeste 0 -- -- 26
2019-07-22 13:00:00 33 8 Noroeste 19 Noroeste 0 -- -- 28
2019-07-22 12:00:00 30.8 5 Noroeste 12 Norte 0 -- -- 36
2019-07-22 11:00:00 27.7 4 Noroeste 9 Norte 0 -- -- 42
2019-07-22 10:00:00 24.6 4 Este 8 Nordeste 0 -- -- 46
2019-07-22 09:00:00 20 0 Calma 5 Sudoeste 0 -- -- 56
2019-07-22 08:00:00 16.3 3 Sur 5 Sur 0 -- -- 56
2019-07-22 07:00:00 15.8 4 Sur 7 Sur 0 -- -- 57
2019-07-22 06:00:00 16.5 2 Sudoeste 8 Sur 0 -- -- 55
2019-07-22 05:00:00 17.1 4 Sur 9 Nordeste 0 -- -- 51
2019-07-22 04:00:00 18 2 Sur 5 Sur 0 -- -- 50
2019-07-22 03:00:00 18.5 2 Sur 9 Sur 0 -- -- 47
2019-07-22 02:00:00 19.4 6 Sur 10 Sur 0 -- -- 45
2019-07-22 01:00:00 21 5 Sur 8 Sur 0 -- -- 42
2019-07-22 00:00:00 23.5 6 Sur 7 Sur 0 -- -- 38
2019-07-21 23:00:00 26.3 4 Sudoeste 10 Norte 0 -- -- 35
2019-07-21 22:00:00 30.1 4 Noroeste 10 Oeste 0 -- -- 29
2019-07-21 21:00:00 33.4 4 Norte 18 Norte 0 -- -- 25
2019-07-21 20:00:00 34.5 8 Norte 21 Noroeste 0 -- -- 24
2019-07-21 19:00:00 35.5 10 Oeste 31 Oeste 0 -- -- 22
2019-07-21 18:00:00 35 11 Norte 22 Oeste 0 -- -- 22
2019-07-21 17:00:00 35.1 11 Noroeste 26 Oeste 0 -- -- 23
2019-07-21 16:00:00 34.5 6 Sudoeste 20 Sudoeste 0 -- -- 25
2019-07-21 15:00:00 32.8 11 Noroeste 22 Noroeste 0 -- -- 29
2019-07-21 14:00:00 31.9 8 Nordeste 18 Nordeste 0 -- -- 32
2019-07-21 13:00:00 30 5 Este 18 Nordeste 0 -- -- 36
2019-07-21 12:00:00 27.7 8 Nordeste 18 Este 0 -- -- 45
2019-07-21 11:00:00 24.4 9 Nordeste 20 Nordeste 0 -- -- 54
2019-07-21 10:00:00 21 9 Nordeste 19 Nordeste 0 -- -- 67
2019-07-21 09:00:00 18.4 10 Este 15 Este 0 -- -- 73
2019-07-21 08:00:00 13.8 4 Nordeste 8 Nordeste 0 -- -- 75
2019-07-21 07:00:00 12.9 3 Sur 4 Sur 0 -- -- 71
2019-07-21 06:00:00 14.1 3 Sur 4 Sur 0 -- -- 67
2019-07-21 05:00:00 15.2 2 Este 6 Sur 0 -- -- 62
2019-07-21 04:00:00 16.2 3 Sur 7 Sur 0 -- -- 59
2019-07-21 03:00:00 17.4 4 Sur 6 Sur 0 -- -- 55
2019-07-21 02:00:00 18.2 3 Sur 6 Sur 0 -- -- 51
2019-07-21 01:00:00 19.6 3 Sur 5 Sur 0 -- -- 48
2019-07-21 00:00:00 21.3 3 Sur 6 Sur 0 -- -- 43
2019-07-20 23:00:00 24.8 0 Calma 9 Oeste 0 -- -- 38
2019-07-20 22:00:00 28.4 7 Noroeste 19 Noroeste 0 -- -- 33
2019-07-20 21:00:00 30.7 12 Noroeste 24 Noroeste 0 -- -- 29
2019-07-20 20:00:00 32.1 14 Oeste 27 Oeste 0 -- -- 25
2019-07-20 19:00:00 32.9 14 Oeste 30 Noroeste 0 -- -- 24
2019-07-20 18:00:00 33.2 8 Oeste 31 Oeste 0 -- -- 22
2019-07-20 17:00:00 32.7 10 Oeste 32 Oeste 0 -- -- 22
2019-07-20 16:00:00 32.3 13 Sudoeste 36 Sudoeste 0 -- -- 24
2019-07-20 15:00:00 31.4 17 Oeste 28 Oeste 0 -- -- 30
2019-07-20 14:00:00 29.6 10 Oeste 24 Oeste 0 -- -- 35
2019-07-20 13:00:00 28.1 10 Oeste 28 Oeste 0 -- -- 39
2019-07-20 12:00:00 26.4 10 Oeste 21 Oeste 0 -- -- 44
2019-07-20 11:00:00 23.9 11 Oeste 17 Oeste 0 -- -- 52
2019-07-20 10:00:00 21.5 9 Noroeste 19 Oeste 0 -- -- 60
2019-07-20 09:00:00 19.8 9 Oeste 16 Oeste 0 -- -- 66
2019-07-20 08:00:00 16.4 3 Sur 6 Sudoeste 0 -- -- 70
2019-07-20 07:00:00 16.5 3 Sudoeste 5 Sudoeste 0 -- -- 69
2019-07-20 06:00:00 16.7 4 Sudoeste 8 Sudoeste 0 -- -- 65
2019-07-20 05:00:00 17.9 4 Sudoeste 6 Sudoeste 0 -- -- 58
2019-07-20 04:00:00 19.7 3 Sudoeste 8 Sudoeste 0 -- -- 55
2019-07-20 03:00:00 20.7 5 Sur 12 Sudoeste 0 -- -- 53
2019-07-20 02:00:00 21.7 3 Sudoeste 9 Sudoeste 0 -- -- 50
2019-07-20 01:00:00 23.5 4 Oeste 8 Oeste 0 -- -- 46
2019-07-20 00:00:00 25.6 6 Oeste 14 Noroeste 0 -- -- 41
2019-07-19 23:00:00 27.8 7 Oeste 21 Noroeste 0 -- -- 36
2019-07-19 22:00:00 30.6 7 Oeste 15 Oeste 0 -- -- 30
2019-07-19 21:00:00 32.5 13 Oeste 26 Sudoeste 0 -- -- 26
2019-07-19 20:00:00 33.9 18 Sudoeste 29 Oeste 0 -- -- 22
2019-07-19 19:00:00 34 13 Sudoeste 30 Sudoeste 0 -- -- 23
2019-07-19 18:00:00 34.7 17 Oeste 32 Oeste 0 -- -- 24
2019-07-19 17:00:00 35 18 Sudoeste 34 Oeste 0 -- -- 25
2019-07-19 16:00:00 33.8 17 Sudoeste 31 Oeste 0 -- -- 25
2019-07-19 15:00:00 33.5 14 Sudoeste 33 Sudoeste 0 -- -- 25
2019-07-19 14:00:00 32.4 16 Oeste 26 Oeste 0 -- -- 27
2019-07-19 13:00:00 29.8 5 Noroeste 15 Noroeste 0 -- -- 33
2019-07-19 12:00:00 27.3 6 Noroeste 13 Noroeste 0 -- -- 38
2019-07-19 11:00:00 24.7 5 Nordeste 15 Este 0 -- -- 42
2019-07-19 10:00:00 21.8 8 Este 13 Este 0 -- -- 49
2019-07-19 09:00:00 17 0 Calma 3 Sudoeste 0 -- -- 53
2019-07-19 08:00:00 13 2 Sur 4 Sudeste 0 -- -- 59
2019-07-19 07:00:00 12.8 0 Calma 8 Sur 0 -- -- 59
2019-07-19 06:00:00 13.3 2 Sur 6 Sur 0 -- -- 57
2019-07-19 05:00:00 14.1 2 Sur 5 Sudeste 0 -- -- 53
2019-07-19 04:00:00 14.9 3 Sur 9 Sur 0 -- -- 52
2019-07-19 03:00:00 15.7 6 Sur 9 Sur 0 -- -- 50
2019-07-19 02:00:00 17 5 Sur 11 Sur 0 -- -- 48
2019-07-19 01:00:00 18.3 7 Sur 9 Sudeste 0 -- -- 46
2019-07-19 00:00:00 20.3 5 Sur 9 Sudeste 0 -- -- 43